createdAt,value
2023-02-16T00:00:29.191Z,49.88
2023-02-16T00:02:56.056Z,49.00
2023-02-16T00:05:28.602Z,48.88
2023-02-16T00:07:56.368Z,49.15
2023-02-16T00:10:24.839Z,48.35
2023-02-16T00:13:11.310Z,47.25
2023-02-16T00:15:37.848Z,50.03
2023-02-16T00:18:14.578Z,49.20
2023-02-16T00:20:40.995Z,49.63
2023-02-16T00:23:07.368Z,49.97
2023-02-16T00:25:33.997Z,48.13
2023-02-16T00:28:14.469Z,47.83
2023-02-16T00:30:41.222Z,49.75
2023-02-16T00:33:19.575Z,50.85
2023-02-16T00:35:46.200Z,50.47
2023-02-16T00:38:13.279Z,49.65
2023-02-16T00:40:41.667Z,50.72
2023-02-16T00:43:13.444Z,50.00
2023-02-16T00:45:39.860Z,51.28
2023-02-16T00:48:06.279Z,47.97
2023-02-16T00:50:34.196Z,46.38
2023-02-16T00:53:02.724Z,49.78
2023-02-16T00:55:35.242Z,50.83
2023-02-16T00:58:28.295Z,51.55
2023-02-16T01:01:02.996Z,48.90
2023-02-16T01:03:29.927Z,45.70
2023-02-16T01:06:25.827Z,50.42
2023-02-16T01:09:13.221Z,52.67
2023-02-16T01:11:39.699Z,53.67
2023-02-16T01:14:06.173Z,50.50
2023-02-16T01:16:42.659Z,50.90
2023-02-16T01:19:11.861Z,49.85
2023-02-16T01:21:39.153Z,49.72
2023-02-16T01:24:05.806Z,52.50
2023-02-16T01:26:41.706Z,51.28
2023-02-16T01:29:15.311Z,48.50
2023-02-16T01:31:42.011Z,49.63
2023-02-16T01:34:08.715Z,53.42
2023-02-16T01:36:41.709Z,51.33
2023-02-16T01:39:11.423Z,50.60
2023-02-16T01:42:01.225Z,55.88
2023-02-16T01:44:34.399Z,51.38
2023-02-16T01:47:42.047Z,52.63
2023-02-16T01:50:20.179Z,51.67
2023-02-16T01:52:55.843Z,51.63
2023-02-16T01:55:28.433Z,52.03
2023-02-16T01:58:06.974Z,52.60
2023-02-16T02:00:57.249Z,49.78
2023-02-16T02:06:11.760Z,54.42
2023-02-16T02:09:08.270Z,52.47
2023-02-16T02:11:45.494Z,50.00
2023-02-16T02:14:17.743Z,50.70
2023-02-16T02:16:58.771Z,51.78
2023-02-16T02:19:25.401Z,50.13
2023-02-16T02:22:29.649Z,50.85
2023-02-16T02:25:14.047Z,51.00
2023-02-16T02:27:52.581Z,53.08
2023-02-16T02:30:37.648Z,54.03
2023-02-16T02:33:38.263Z,50.50
2023-02-16T02:36:14.262Z,52.65
2023-02-16T02:38:56.118Z,53.13
2023-02-16T02:41:54.403Z,53.03
2023-02-16T02:44:23.952Z,55.90
2023-02-16T02:46:51.237Z,54.13
2023-02-16T02:49:17.692Z,54.45
2023-02-16T02:51:44.179Z,55.50
2023-02-16T02:54:42.310Z,55.30
2023-02-16T02:57:50.428Z,53.42
2023-02-16T03:00:43.798Z,53.97
2023-02-16T03:03:19.334Z,49.08
2023-02-16T03:05:53.139Z,48.30
2023-02-16T03:08:23.667Z,54.83
2023-02-16T03:11:16.751Z,53.03
2023-02-16T03:13:47.109Z,51.67
2023-02-16T03:16:23.596Z,53.22
2023-02-16T03:19:09.166Z,54.53
2023-02-16T03:21:54.838Z,52.33
2023-02-16T03:24:45.419Z,51.97
2023-02-16T03:27:32.691Z,53.08
2023-02-16T03:30:01.273Z,51.47
2023-02-16T03:32:27.983Z,50.60
2023-02-16T03:34:54.425Z,49.08
2023-02-16T03:37:21.014Z,50.35
2023-02-16T03:40:06.813Z,51.30
2023-02-16T03:42:33.251Z,53.92
2023-02-16T03:44:59.944Z,52.35
2023-02-16T03:47:26.343Z,55.80
2023-02-16T03:49:52.819Z,53.30
2023-02-16T03:52:19.202Z,52.15
2023-02-16T03:54:45.753Z,50.83
2023-02-16T03:57:12.169Z,51.22
2023-02-16T03:59:38.587Z,55.22
2023-02-16T04:02:05.079Z,51.10
2023-02-16T04:04:31.576Z,53.92
2023-02-16T04:06:58.061Z,54.00
2023-02-16T04:09:24.543Z,50.00
2023-02-16T04:12:09.537Z,51.33
2023-02-16T04:14:35.930Z,52.08
2023-02-16T04:17:03.833Z,48.60
2023-02-16T04:19:30.602Z,53.42
2023-02-16T04:21:57.052Z,51.38
2023-02-16T04:24:23.530Z,53.45
2023-02-16T04:26:50.070Z,52.47
2023-02-16T04:29:16.502Z,53.90
2023-02-16T04:31:43.228Z,52.40
2023-02-16T04:34:09.774Z,50.38
2023-02-16T04:36:36.228Z,49.63
2023-02-16T04:39:02.654Z,54.28
2023-02-16T04:41:29.150Z,51.60
2023-02-16T04:43:55.617Z,51.88
2023-02-16T04:46:22.129Z,51.80
2023-02-16T04:48:48.548Z,50.95
2023-02-16T04:51:15.239Z,51.22
2023-02-16T04:53:41.762Z,50.78
2023-02-16T04:56:12.606Z,52.25
2023-02-16T04:58:39.181Z,51.10
2023-02-16T05:01:06.145Z,49.78
2023-02-16T05:03:33.658Z,52.97
2023-02-16T05:06:00.305Z,52.13
2023-02-16T05:08:27.612Z,49.80
2023-02-16T05:11:12.794Z,48.78
2023-02-16T05:13:58.001Z,50.10
2023-02-16T05:16:24.936Z,52.42
2023-02-16T05:18:51.414Z,50.80
2023-02-16T05:21:33.326Z,50.47
2023-02-16T05:24:02.000Z,47.33
2023-02-16T05:26:28.910Z,48.60
2023-02-16T05:28:55.713Z,50.50
2023-02-16T05:31:23.758Z,49.28
2023-02-16T05:33:50.274Z,51.00
2023-02-16T05:36:16.710Z,52.08
2023-02-16T05:38:43.360Z,49.88
2023-02-16T05:41:09.976Z,49.25
2023-02-16T05:43:36.445Z,49.65
2023-02-16T05:46:08.254Z,47.50
2023-02-16T05:48:34.684Z,51.30
2023-02-16T05:51:01.295Z,51.58
2023-02-16T05:53:27.963Z,47.22
2023-02-16T05:55:54.371Z,49.95
2023-02-16T05:58:20.902Z,53.72
2023-02-16T06:00:47.286Z,49.83
2023-02-16T06:03:13.797Z,50.38
2023-02-16T06:05:40.315Z,51.13
2023-02-16T06:08:06.747Z,49.33
2023-02-16T06:10:33.151Z,50.78
2023-02-16T06:12:59.530Z,50.63
2023-02-16T06:15:25.912Z,49.80
2023-02-16T06:17:52.367Z,48.53
2023-02-16T06:20:18.976Z,47.55
2023-02-16T06:22:45.361Z,50.60
2023-02-16T06:25:11.827Z,49.95
2023-02-16T06:27:38.473Z,46.90
2023-02-16T06:30:06.108Z,53.00
2023-02-16T06:32:33.525Z,48.83
2023-02-16T06:35:00.001Z,47.28
2023-02-16T06:37:26.472Z,50.75
2023-02-16T06:39:52.925Z,52.40
2023-02-16T06:42:19.460Z,53.15
2023-02-16T06:44:45.973Z,53.67
2023-02-16T06:47:12.407Z,54.33
2023-02-16T06:49:38.910Z,54.67
2023-02-16T06:52:05.409Z,59.55
2023-02-16T06:54:31.795Z,51.55
2023-02-16T06:56:58.196Z,51.25
2023-02-16T06:59:24.606Z,53.55
2023-02-16T07:01:51.001Z,57.15
2023-02-16T07:04:17.419Z,51.58
2023-02-16T07:06:43.925Z,55.17
2023-02-16T07:09:12.409Z,51.08
2023-02-16T07:11:39.335Z,56.70
2023-02-16T07:14:05.765Z,52.95
2023-02-16T07:16:35.241Z,55.15
2023-02-16T07:19:01.694Z,57.88
2023-02-16T07:21:28.097Z,54.22
2023-02-16T07:23:54.507Z,55.15
2023-02-16T07:26:21.025Z,54.22
2023-02-16T07:28:47.450Z,54.10
2023-02-16T07:31:18.210Z,55.53
2023-02-16T07:33:45.184Z,55.72
2023-02-16T07:36:13.105Z,51.08
2023-02-16T07:38:41.834Z,54.00
2023-02-16T07:41:09.883Z,53.13
2023-02-16T07:43:38.089Z,53.28
2023-02-16T07:46:05.426Z,51.25
2023-02-16T07:48:31.922Z,53.78
2023-02-16T07:50:58.415Z,55.30
2023-02-16T07:53:24.817Z,55.33
2023-02-16T07:55:51.238Z,54.92
2023-02-16T07:58:27.277Z,57.30
2023-02-16T08:00:54.931Z,54.30
2023-02-16T08:03:21.446Z,54.53
2023-02-16T08:05:48.169Z,56.10
2023-02-16T08:08:14.584Z,56.42
2023-02-16T08:10:41.105Z,54.85
2023-02-16T08:13:07.487Z,57.50
2023-02-16T08:15:33.863Z,56.85
2023-02-16T08:18:00.292Z,58.38
2023-02-16T08:20:43.186Z,57.25
2023-02-16T08:23:13.068Z,59.55
2023-02-16T08:25:39.599Z,55.75
2023-02-16T08:28:06.942Z,60.05
2023-02-16T08:30:34.755Z,58.25
2023-02-16T08:33:01.826Z,55.38
2023-02-16T08:35:31.964Z,56.33
2023-02-16T08:38:02.367Z,56.53
2023-02-16T08:40:29.956Z,55.03
2023-02-16T08:42:56.374Z,57.78
2023-02-16T08:45:22.847Z,55.13
2023-02-16T08:47:49.428Z,55.05
2023-02-16T08:50:16.946Z,57.47
2023-02-16T08:52:43.356Z,57.25
2023-02-16T08:55:09.763Z,55.90
2023-02-16T08:57:36.265Z,56.10
2023-02-16T09:00:22.666Z,55.05
2023-02-16T09:02:49.983Z,53.35
2023-02-16T09:05:16.528Z,53.95
2023-02-16T09:07:42.919Z,54.42
2023-02-16T09:10:09.635Z,53.40
2023-02-16T09:12:36.599Z,54.13
2023-02-16T09:15:03.161Z,53.75
2023-02-16T09:17:29.621Z,52.65
2023-02-16T09:19:56.358Z,54.08
2023-02-16T09:22:23.474Z,52.88
2023-02-16T09:24:49.865Z,53.38
2023-02-16T09:27:16.392Z,51.85
2023-02-16T09:29:43.933Z,52.13
2023-02-16T09:32:10.426Z,52.60
2023-02-16T09:34:37.172Z,53.92
2023-02-16T09:37:03.617Z,54.42
2023-02-16T09:39:30.338Z,52.40
2023-02-16T09:42:21.258Z,53.15
2023-02-16T09:45:11.186Z,55.05
2023-02-16T09:47:43.079Z,53.10
2023-02-16T09:50:38.245Z,53.92
2023-02-16T09:53:30.338Z,54.28
2023-02-16T09:56:07.346Z,52.90
2023-02-16T09:58:42.330Z,53.53
2023-02-16T10:01:20.340Z,55.10
2023-02-16T10:03:55.943Z,56.72
2023-02-16T10:06:31.607Z,55.50
2023-02-16T10:09:12.669Z,55.72
2023-02-16T10:12:04.027Z,57.58
2023-02-16T10:14:49.663Z,54.58
2023-02-16T10:17:28.272Z,55.65
2023-02-16T10:20:01.168Z,54.40
2023-02-16T10:22:36.825Z,57.42
2023-02-16T10:25:15.214Z,61.05
2023-02-16T10:27:44.537Z,60.25
2023-02-16T10:30:17.984Z,57.50
2023-02-16T10:32:59.561Z,58.22
2023-02-16T10:35:40.358Z,58.42
2023-02-16T10:38:18.268Z,55.85
2023-02-16T10:41:01.378Z,58.15
2023-02-16T10:43:39.969Z,58.50
2023-02-16T10:46:06.890Z,56.22
2023-02-16T10:48:33.412Z,56.20
2023-02-16T10:51:09.404Z,58.47
2023-02-16T10:54:05.769Z,57.08
2023-02-16T10:56:45.537Z,55.97
2023-02-16T10:59:18.833Z,58.05
2023-02-16T11:01:57.668Z,61.13
2023-02-16T11:04:38.422Z,59.47
2023-02-16T11:07:14.270Z,55.35
2023-02-16T11:09:42.055Z,57.70
2023-02-16T11:12:23.958Z,51.92
2023-02-16T11:14:53.241Z,75.07
2023-02-16T11:17:22.541Z,66.50
2023-02-16T11:20:24.455Z,62.57
2023-02-16T11:22:51.775Z,54.90
2023-02-16T11:25:18.168Z,56.97
2023-02-16T11:27:50.730Z,58.22
2023-02-16T11:30:23.368Z,58.03
2023-02-16T11:32:51.583Z,56.40
2023-02-16T11:35:18.950Z,58.53
2023-02-16T11:37:46.377Z,57.42
2023-02-16T11:40:51.210Z,56.88
2023-02-16T11:43:18.290Z,58.65
2023-02-16T11:45:56.531Z,57.30
2023-02-16T11:48:29.175Z,58.95
2023-02-16T11:51:00.302Z,60.15
2023-02-16T11:53:30.610Z,59.17
2023-02-16T11:58:40.412Z,57.60
2023-02-16T12:01:23.926Z,58.13
2023-02-16T12:04:41.528Z,59.42
2023-02-16T12:07:29.504Z,61.13
2023-02-16T12:10:09.463Z,61.90
2023-02-16T12:13:00.722Z,60.10
2023-02-16T12:15:36.520Z,60.42
2023-02-16T12:18:34.501Z,62.13
2023-02-16T12:21:17.358Z,60.50
2023-02-16T12:24:03.318Z,63.55
2023-02-16T12:26:35.836Z,62.63
2023-02-16T12:29:21.165Z,65.30
2023-02-16T12:32:03.335Z,60.25
2023-02-16T12:35:14.426Z,63.47
2023-02-16T12:38:22.153Z,66.80
2023-02-16T12:41:11.278Z,68.15
2023-02-16T12:43:52.256Z,68.82
2023-02-16T12:46:35.730Z,67.88
2023-02-16T12:49:34.430Z,72.47
2023-02-16T12:52:12.722Z,72.85
2023-02-16T12:54:51.517Z,69.95
2023-02-16T12:57:22.773Z,71.57
2023-02-16T12:59:56.581Z,71.80
2023-02-16T13:02:50.727Z,68.05
2023-02-16T13:05:21.151Z,69.30
2023-02-16T13:07:52.700Z,70.28
2023-02-16T13:10:36.246Z,72.07
2023-02-16T13:13:35.480Z,74.55
2023-02-16T13:16:24.109Z,70.80
2023-02-16T13:18:58.985Z,73.53
2023-02-16T13:21:54.927Z,73.35
2023-02-16T13:24:41.741Z,72.50
2023-02-16T13:27:32.179Z,78.30
2023-02-16T13:30:15.899Z,71.45
2023-02-16T13:33:02.642Z,69.88
2023-02-16T13:35:57.314Z,76.97
2023-02-16T13:38:45.261Z,70.82
2023-02-16T13:41:38.957Z,76.55
2023-02-16T13:44:16.226Z,73.18
2023-02-16T13:46:52.494Z,75.25
2023-02-16T13:49:32.986Z,77.38
2023-02-16T13:52:00.493Z,69.85
2023-02-16T13:54:31.396Z,70.00
2023-02-16T13:56:57.997Z,76.13
2023-02-16T13:59:24.460Z,75.82
2023-02-16T14:01:54.889Z,70.13
2023-02-16T14:04:27.560Z,72.57
2023-02-16T14:07:03.229Z,71.38
2023-02-16T14:09:31.021Z,78.72
2023-02-16T14:11:57.509Z,72.10
2023-02-16T14:14:42.144Z,75.10
2023-02-16T14:17:14.816Z,73.50
2023-02-16T14:20:22.808Z,73.38
2023-02-16T14:22:57.254Z,68.03
2023-02-16T14:25:33.048Z,71.57
2023-02-16T14:28:21.841Z,72.45
2023-02-16T14:30:57.954Z,73.07
2023-02-16T14:33:50.234Z,71.22
2023-02-16T14:36:19.819Z,72.43
2023-02-16T14:38:52.018Z,74.68
2023-02-16T14:41:33.437Z,71.28
2023-02-16T14:44:06.187Z,68.93
2023-02-16T14:46:41.765Z,73.18
2023-02-16T14:49:35.066Z,71.97
2023-02-16T14:52:35.938Z,68.75
2023-02-16T14:55:27.099Z,66.68
2023-02-16T14:58:04.109Z,66.30
2023-02-16T15:00:37.240Z,67.28
2023-02-16T15:03:15.028Z,62.70
2023-02-16T15:05:42.168Z,66.82
2023-02-16T15:08:16.248Z,67.10
2023-02-16T15:10:47.793Z,65.38
2023-02-16T15:13:27.745Z,68.47
2023-02-16T15:15:57.461Z,66.28
2023-02-16T15:18:34.099Z,65.97
2023-02-16T15:21:00.697Z,65.65
2023-02-16T15:23:34.681Z,66.60
2023-02-16T15:26:14.920Z,72.97
2023-02-16T15:31:18.052Z,70.85
2023-02-16T15:33:56.908Z,71.10
2023-02-16T15:36:39.565Z,70.18
2023-02-16T15:39:14.837Z,74.10
2023-02-16T15:41:46.003Z,78.88
2023-02-16T15:44:31.176Z,77.25
2023-02-16T15:47:14.125Z,79.22
2023-02-16T15:49:41.135Z,82.93
2023-02-16T15:52:18.118Z,80.90
2023-02-16T15:54:46.704Z,90.78
2023-02-16T15:57:30.836Z,96.00
2023-02-16T16:00:00.153Z,89.88
2023-02-16T16:02:38.385Z,97.97
2023-02-16T16:05:09.955Z,93.72
2023-02-16T16:07:40.029Z,96.07
2023-02-16T16:10:25.663Z,94.65
2023-02-16T16:12:54.569Z,101.63
2023-02-16T16:15:24.804Z,102.82
2023-02-16T16:17:53.223Z,95.10
2023-02-16T16:20:36.758Z,100.43
2023-02-16T16:23:24.967Z,99.35
2023-02-16T16:25:52.928Z,97.85
2023-02-16T16:28:28.585Z,99.28
2023-02-16T16:31:12.230Z,98.30
2023-02-16T16:34:17.763Z,100.72
2023-02-16T16:36:54.577Z,101.57
2023-02-16T16:39:32.621Z,107.85
2023-02-16T16:42:19.211Z,105.90
2023-02-16T16:44:55.785Z,107.43
2023-02-16T16:47:39.105Z,101.45
2023-02-16T16:50:36.738Z,97.85
2023-02-16T16:53:30.805Z,106.03
2023-02-16T16:55:57.937Z,98.15
2023-02-16T16:58:24.464Z,98.32
2023-02-16T17:00:50.924Z,95.95
2023-02-16T17:03:18.564Z,102.38
2023-02-16T17:05:45.968Z,99.90
2023-02-16T17:08:12.737Z,95.82
2023-02-16T17:10:40.967Z,94.38
2023-02-16T17:13:07.855Z,103.72
2023-02-16T17:15:34.236Z,102.95
2023-02-16T17:18:01.923Z,102.28
2023-02-16T17:20:28.462Z,101.93
2023-02-16T17:22:54.863Z,99.63
2023-02-16T17:25:21.291Z,97.95
2023-02-16T17:27:47.863Z,101.80
2023-02-16T17:30:14.963Z,98.57
2023-02-16T17:32:41.384Z,104.15
2023-02-16T17:35:08.089Z,96.20
2023-02-16T17:37:35.549Z,101.30
2023-02-16T17:40:03.278Z,108.88
2023-02-16T17:42:29.820Z,101.93
2023-02-16T17:44:56.285Z,98.32
2023-02-16T17:47:22.779Z,102.60
2023-02-16T17:49:49.179Z,99.55
2023-02-16T17:52:15.627Z,99.88
2023-02-16T17:54:42.013Z,96.78
2023-02-16T17:57:10.352Z,99.13
2023-02-16T17:59:36.873Z,95.63
2023-02-16T18:02:03.350Z,95.60
2023-02-16T18:04:29.784Z,94.70
2023-02-16T18:06:56.229Z,93.10
2023-02-16T18:09:24.479Z,95.25
2023-02-16T18:11:51.670Z,94.22
2023-02-16T18:14:18.096Z,96.35
2023-02-16T18:16:44.573Z,90.97
2023-02-16T18:19:14.656Z,97.57
2023-02-16T18:21:41.094Z,94.88
2023-02-16T18:24:07.533Z,91.93
2023-02-16T18:26:33.925Z,87.85
2023-02-16T18:29:00.395Z,89.32
2023-02-16T18:31:26.861Z,92.00
2023-02-16T18:33:53.406Z,94.07
2023-02-16T18:36:19.827Z,92.20
2023-02-16T18:38:46.248Z,93.30
2023-02-16T18:41:13.319Z,96.57
2023-02-16T18:43:39.767Z,97.60
2023-02-16T18:46:08.524Z,89.00
2023-02-16T18:48:35.239Z,88.95
2023-02-16T18:51:09.781Z,88.10
2023-02-16T18:53:37.650Z,85.80
2023-02-16T18:56:06.025Z,92.43
2023-02-16T18:58:33.044Z,88.63
2023-02-16T19:00:59.594Z,83.70
2023-02-16T19:03:26.091Z,83.88
2023-02-16T19:05:52.699Z,86.18
2023-02-16T19:08:19.102Z,86.10
2023-02-16T19:10:45.476Z,87.82
2023-02-16T19:13:11.898Z,84.65
2023-02-16T19:15:38.386Z,86.10
2023-02-16T19:18:04.956Z,91.57
2023-02-16T19:20:31.378Z,101.65
2023-02-16T19:22:57.857Z,93.75
2023-02-16T19:25:24.577Z,89.50
2023-02-16T19:27:51.129Z,89.38
2023-02-16T19:30:20.581Z,94.18
2023-02-16T19:32:47.318Z,91.85
2023-02-16T19:35:13.800Z,92.03
2023-02-16T19:37:40.350Z,88.35
2023-02-16T19:40:09.247Z,91.68
2023-02-16T19:42:36.364Z,90.15
2023-02-16T19:45:03.221Z,91.75
2023-02-16T19:47:29.641Z,95.45
2023-02-16T19:49:56.084Z,93.82
2023-02-16T19:52:22.567Z,92.03
2023-02-16T19:54:49.439Z,102.18
2023-02-16T19:57:16.034Z,95.05
2023-02-16T19:59:42.553Z,96.60
2023-02-16T20:02:11.955Z,101.00
2023-02-16T20:04:38.452Z,97.73
2023-02-16T20:07:05.740Z,95.93
2023-02-16T20:09:32.159Z,95.70
2023-02-16T20:11:58.604Z,94.28
2023-02-16T20:14:24.979Z,99.45
2023-02-16T20:16:51.835Z,99.88
2023-02-16T20:19:18.770Z,103.10
2023-02-16T20:21:46.269Z,98.68
2023-02-16T20:24:13.897Z,103.38
2023-02-16T20:26:44.155Z,96.05
2023-02-16T20:31:49.168Z,100.60
2023-02-16T20:34:15.878Z,101.00
2023-02-16T20:36:42.291Z,96.78
2023-02-16T20:39:09.111Z,108.90
2023-02-16T20:41:35.873Z,105.10
2023-02-16T20:44:02.952Z,100.90
2023-02-16T20:46:29.827Z,102.07
2023-02-16T20:48:56.740Z,105.93
2023-02-16T20:51:23.339Z,108.13
2023-02-16T20:53:49.962Z,97.43
2023-02-16T20:56:21.391Z,107.63
2023-02-16T20:58:49.386Z,111.32
2023-02-16T21:01:24.031Z,108.78
2023-02-16T21:03:51.656Z,102.53
2023-02-16T21:06:19.257Z,102.13
2023-02-16T21:08:45.807Z,102.68
2023-02-16T21:11:12.579Z,99.53
2023-02-16T21:13:40.558Z,108.30
2023-02-16T21:16:08.576Z,107.47
2023-02-16T21:18:36.869Z,109.82
2023-02-16T21:21:04.741Z,102.13
2023-02-16T21:23:31.238Z,103.85
2023-02-16T21:26:02.948Z,101.60
2023-02-16T21:28:29.801Z,99.53
2023-02-16T21:31:01.365Z,109.97
2023-02-16T21:33:27.807Z,103.60
2023-02-16T21:35:56.518Z,102.68
2023-02-16T21:38:22.932Z,107.65
2023-02-16T21:41:15.513Z,102.97
2023-02-16T21:43:42.431Z,96.93
2023-02-16T21:46:09.587Z,96.65
2023-02-16T21:48:45.128Z,106.78
2023-02-16T21:51:13.409Z,102.55
2023-02-16T21:53:39.891Z,101.93
2023-02-16T21:56:20.229Z,99.10
2023-02-16T21:58:47.303Z,98.85
2023-02-16T22:01:14.139Z,100.45
2023-02-16T22:03:40.875Z,101.80
2023-02-16T22:06:09.053Z,100.60
2023-02-16T22:08:37.896Z,94.63
2023-02-16T22:11:10.135Z,100.18
2023-02-16T22:13:37.680Z,102.57
2023-02-16T22:16:17.817Z,98.13
2023-02-16T22:18:44.745Z,102.60
2023-02-16T22:21:11.525Z,103.30
2023-02-16T22:23:39.103Z,93.28
2023-02-16T22:26:07.281Z,99.78
2023-02-16T22:28:35.248Z,107.05
2023-02-16T22:31:08.914Z,101.80
2023-02-16T22:33:35.393Z,97.80
2023-02-16T22:36:07.242Z,97.93
2023-02-16T22:38:34.639Z,97.88
2023-02-16T22:41:05.040Z,97.82
2023-02-16T22:43:31.934Z,100.35
2023-02-16T22:45:58.359Z,101.43
2023-02-16T22:48:26.258Z,97.88
2023-02-16T22:51:00.008Z,98.10
2023-02-16T22:53:27.062Z,97.95
2023-02-16T22:55:54.607Z,98.07
2023-02-16T22:58:21.460Z,91.50
2023-02-16T23:00:49.365Z,96.00
2023-02-16T23:03:16.297Z,99.07
2023-02-16T23:05:42.905Z,98.57
2023-02-16T23:08:10.515Z,98.00
2023-02-16T23:10:38.239Z,97.30
2023-02-16T23:13:09.448Z,93.50
2023-02-16T23:15:36.106Z,99.15
2023-02-16T23:18:02.586Z,95.30
2023-02-16T23:20:29.385Z,93.03
2023-02-16T23:22:55.800Z,95.22
2023-02-16T23:25:34.053Z,94.35
2023-02-16T23:28:02.607Z,92.40
2023-02-16T23:30:30.359Z,90.72
2023-02-16T23:32:57.190Z,100.57
2023-02-16T23:35:23.647Z,97.90
2023-02-16T23:37:50.129Z,92.53
2023-02-16T23:40:16.641Z,97.25
2023-02-16T23:42:43.026Z,93.38
2023-02-16T23:45:09.687Z,101.68
2023-02-16T23:47:36.188Z,101.25
2023-02-16T23:50:02.589Z,90.07
2023-02-16T23:52:29.023Z,96.70
2023-02-16T23:54:55.633Z,96.93
2023-02-16T23:57:22.096Z,94.25
2023-02-16T23:59:48.565Z,90.72
